Oak Park, IL (60303)

2:07 AM CST on March 01, 2015 (GMT -0600)
Oak Park | Change Station
CLOSE
Current Station
Personal Weather Station
Location: Oak Park, IL
Elevation: 633 ft
Nearby Weather Stations

Elev 633 ft 41.91 °N, 87.80 °W | Updated 8 seconds ago

Overcast
Overcast
17.2 °F
Feels Like 17 °F
N
0.0
Wind Variable Wind from ESE
Gusts 0.0 mph

Today
High -- | Low -- °F
--% Chance of Precip.
Yesterday
High -- | Low -- °F
Precip. -- in
6:26 AM 5:41 PM
Waxing Gibbous, 83% visible
Pressure 30.48 in
Visibility 10.0 miles
Clouds Overcast 9000 ft
Windchill 17 °F
Dew Point 10 °F
Humidity 71%
Rainfall 0.00 in
Snow Depth Not available.
UV 0 out of 12
Pollen .50 out of 12
Air Quality Not available.
Flu Activity Not available.
METAR KMDW 010753Z 17005KT 10SM OVC090 M06/M09 A3042 RMK AO2 SNE18 SLP320 P0000 T10611094

More Conditions Fewer Conditions

Pressure 30.48 in
Visibility 10.0 miles
Clouds Overcast 9000 ft
Windchill 17 °F
Dew Point 10 °F
Humidity 71%
Rainfall 0.00 in
Snow Depth Not available.
UV 0 out of 12
Pollen .50 out of 12
Air Quality Not available.
Flu Activity Not available.
METAR KMDW 010753Z 17005KT 10SM OVC090 M06/M09 A3042 RMK AO2 SNE18 SLP320 P0000 T10611094

More Conditions Fewer Conditions

10-Day Weather Forecast

Almanac

Astronomy

Mar. 01, 2015 Rise Set
Actual Time
Civil Twilight
Nautical Twilight
Astronomical Twilight
Moon
Length of Visible Light
Length of Day
Tomorrow will be .
, % of the Moon is Illuminated

Today's Extremes

State Highs State Lows

Community

WunderPhotos

Upload Photos

1,801,350 photos uploaded!

WunderBlogs® & News

Nearby

Air Quality

  Air Quality AQ Index Pollutant
Not available.

Snow Depth

Station Depth Elevation

Earthquake Activity

City Distance Mag. Time & Date
Minimum magnitude displayed is 2.5.

Coastal Water Temperatures

Place Temperature

Nearby Weather Stations